To NAV CANADA Home Page Login to a new session Search on AWWS site Feedback and Comments Disclaimer Vers la page française équivalente Tips FAQ What's new on the site To the Forecasts and Observations / NOTAM section To "File a Flight Plan" website Publications and other links Update of the User's profile FIC Telephone Numbers My Weather Data Folder Route Weather Data Regional Weather Data Local Weather Data To the Forecasts and Observations / NOTAM section
Request Generated 07/28/2016 at 22:11:15 UTC . Weather information available at that time is displayed.

METAR/TAF

WHITEHORSE/ERIK NIELSEN INTL/YT    

METAR CYXY 282200Z 15009G16KT 40SM SCT055TCU BKN110 BKN220 19/07
A2996 RMK TCU4AC1CI1 SLP158 DENSITY ALT 3200FT=
METAR CYXY 282100Z 15011KT 120V180 40SM SCT055TCU BKN110 BKN220 17/08
A2997 RMK TCU4AC1CI1 SLP162 DENSITY ALT 3000FT=
SPECI CYXY 282041Z 14013KT 40SM SCT050TCU BKN110 BKN220 16/08 A2998
RMK TCU4AC1CI1 SLP165 DENSITY ALT 2900FT=
SPECI CYXY 282004Z 15015KT 40SM -SHRA SCT050TCU BKN110 BKN220 17/08
A2997 RMK TCU4AC1CI2 SLP162 DENSITY ALT 3000FT=
METAR CYXY 282000Z 16012G19KT 40SM VCSH SCT050TCU SCT110 BKN220 18/09
A2997 RMK TCU3AC1CI3 SLP162 DENSITY ALT 3100FT=

TAF CYXY 281738Z 2818/2918 15012KT P6SM SCT040 BKN100 OVC200 TEMPO
2818/2906 P6SM -SHRA BKN050
FM290600 15012KT P6SM SCT060 BKN200
RMK NXT FCST BY 290000Z=
Your time UTC time
Weather data provided by Environment Canada and NAV CANADA